createdAt,value
2022-10-05T00:00:48.353Z,100.00
2022-10-05T00:03:14.849Z,100.00
2022-10-05T00:05:41.459Z,100.00
2022-10-05T00:08:10.558Z,100.00
2022-10-05T00:10:39.287Z,100.00
2022-10-05T00:13:11.889Z,100.00
2022-10-05T00:15:38.341Z,100.00
2022-10-05T00:18:13.305Z,100.00
2022-10-05T00:20:41.430Z,100.00
2022-10-05T00:23:13.665Z,100.00
2022-10-05T00:25:40.030Z,100.00
2022-10-05T00:28:16.785Z,100.00
2022-10-05T00:30:43.293Z,100.00
2022-10-05T00:33:09.655Z,100.00
2022-10-05T00:35:36.265Z,100.00
2022-10-05T00:38:02.622Z,100.00
2022-10-05T00:40:46.089Z,100.00
2022-10-05T00:43:26.960Z,100.00
2022-10-05T00:46:23.859Z,100.00
2022-10-05T00:49:27.817Z,100.00
2022-10-05T00:52:06.789Z,100.00
2022-10-05T00:54:49.298Z,100.00
2022-10-05T00:57:27.754Z,100.00
2022-10-05T01:00:14.430Z,100.00
2022-10-05T01:02:45.991Z,100.00
2022-10-05T01:05:29.445Z,100.00
2022-10-05T01:08:28.421Z,100.00
2022-10-05T01:11:09.363Z,100.00
2022-10-05T01:13:42.749Z,100.00
2022-10-05T01:16:26.782Z,100.00
2022-10-05T01:19:22.510Z,100.00
2022-10-05T01:22:09.725Z,100.00
2022-10-05T01:25:04.523Z,100.00
2022-10-05T01:27:53.006Z,100.00
2022-10-05T01:30:21.824Z,100.00
2022-10-05T01:33:03.470Z,100.00
2022-10-05T01:36:00.434Z,100.00
2022-10-05T01:38:34.492Z,100.00
2022-10-05T01:41:12.460Z,100.00
2022-10-05T01:43:55.876Z,100.00
2022-10-05T01:46:34.047Z,100.00
2022-10-05T01:49:21.900Z,100.00
2022-10-05T01:51:55.342Z,100.00
2022-10-05T01:54:21.636Z,100.00
2022-10-05T01:57:26.245Z,100.00
2022-10-05T02:00:04.792Z,100.00
2022-10-05T02:02:34.686Z,100.00
2022-10-05T02:05:10.216Z,100.00
2022-10-05T02:07:50.683Z,100.00
2022-10-05T02:10:25.955Z,100.00
2022-10-05T02:13:02.490Z,100.00
2022-10-05T02:15:51.460Z,100.00
2022-10-05T02:18:21.878Z,100.00
2022-10-05T02:20:52.233Z,100.00
2022-10-05T02:23:23.962Z,100.00
2022-10-05T02:25:52.878Z,100.00
2022-10-05T02:28:43.932Z,100.00
2022-10-05T02:31:14.356Z,100.00
2022-10-05T02:33:41.064Z,100.00
2022-10-05T02:36:25.957Z,100.00
2022-10-05T02:39:08.492Z,100.00
2022-10-05T02:41:50.151Z,100.00
2022-10-05T02:44:45.062Z,100.00
2022-10-05T02:47:20.969Z,100.00
2022-10-05T02:49:50.277Z,100.00
2022-10-05T02:52:36.601Z,100.00
2022-10-05T02:55:18.122Z,100.00
2022-10-05T02:57:57.262Z,100.00
2022-10-05T03:00:25.894Z,100.00
2022-10-05T03:03:00.797Z,99.14
2022-10-05T03:05:53.032Z,97.59
2022-10-05T03:08:28.877Z,97.19
2022-10-05T03:11:03.535Z,96.50
2022-10-05T03:13:52.857Z,96.40
2022-10-05T03:17:00.788Z,96.47
2022-10-05T03:19:33.028Z,96.20
2022-10-05T03:22:30.520Z,96.38
2022-10-05T03:25:14.320Z,96.82
2022-10-05T03:27:48.635Z,96.99
2022-10-05T03:30:26.473Z,97.14
2022-10-05T03:33:14.606Z,97.42
2022-10-05T03:35:59.134Z,97.73
2022-10-05T03:38:39.723Z,97.61
2022-10-05T03:41:06.036Z,97.47
2022-10-05T03:44:02.270Z,97.14
2022-10-05T03:46:58.697Z,96.48
2022-10-05T03:49:33.935Z,96.00
2022-10-05T03:52:17.473Z,96.79
2022-10-05T03:55:05.481Z,95.75
2022-10-05T03:57:38.151Z,96.46
2022-10-05T04:00:16.395Z,96.73
2022-10-05T04:03:05.294Z,97.37
2022-10-05T04:05:53.718Z,97.43
2022-10-05T04:08:38.660Z,97.28
2022-10-05T04:11:12.728Z,97.25
2022-10-05T04:13:45.775Z,97.58
2022-10-05T04:16:17.106Z,97.15
2022-10-05T04:19:15.521Z,97.12
2022-10-05T04:21:52.516Z,96.93
2022-10-05T04:24:24.317Z,97.03
2022-10-05T04:26:54.573Z,97.85
2022-10-05T04:29:40.821Z,99.23
2022-10-05T04:32:28.399Z,100.00
2022-10-05T04:35:09.930Z,99.68
2022-10-05T04:38:10.435Z,99.58
2022-10-05T04:41:02.219Z,99.07
2022-10-05T04:43:59.129Z,100.00
2022-10-05T04:47:03.278Z,100.00
2022-10-05T04:50:05.007Z,100.00
2022-10-05T04:52:50.335Z,100.00
2022-10-05T04:55:48.038Z,100.00
2022-10-05T04:58:37.810Z,100.00
2022-10-05T05:01:29.614Z,100.00
2022-10-05T05:04:14.825Z,100.00
2022-10-05T05:06:57.270Z,100.00
2022-10-05T05:09:49.020Z,100.00
2022-10-05T05:12:27.571Z,100.00
2022-10-05T05:15:15.286Z,99.96
2022-10-05T05:18:14.070Z,99.88
2022-10-05T05:20:56.918Z,99.80
2022-10-05T05:23:44.429Z,99.44
2022-10-05T05:26:28.669Z,99.19
2022-10-05T05:29:08.770Z,99.61
2022-10-05T05:31:49.014Z,100.00
2022-10-05T05:34:34.342Z,100.00
2022-10-05T05:37:28.149Z,100.00
2022-10-05T05:40:12.925Z,100.00
2022-10-05T05:42:47.011Z,100.00
2022-10-05T05:45:27.453Z,100.00
2022-10-05T05:47:54.813Z,100.00
2022-10-05T05:50:33.998Z,99.27
2022-10-05T05:53:14.621Z,98.96
2022-10-05T05:55:48.524Z,98.67
2022-10-05T05:58:32.175Z,99.29
2022-10-05T06:01:04.192Z,100.00
2022-10-05T06:03:59.519Z,98.95
2022-10-05T06:06:31.006Z,99.00
2022-10-05T06:09:01.358Z,98.87
2022-10-05T06:11:53.074Z,98.60
2022-10-05T06:14:34.573Z,97.46
2022-10-05T06:17:10.250Z,97.70
2022-10-05T06:19:39.062Z,96.63
2022-10-05T06:22:29.064Z,95.90
2022-10-05T06:25:06.713Z,95.49
2022-10-05T06:27:37.701Z,95.29
2022-10-05T06:30:14.965Z,95.16
2022-10-05T06:33:02.975Z,94.69
2022-10-05T06:35:53.626Z,93.48
2022-10-05T06:38:46.940Z,93.60
2022-10-05T06:41:46.996Z,93.50
2022-10-05T06:44:45.631Z,93.22
2022-10-05T06:47:44.795Z,94.07
2022-10-05T06:50:34.547Z,93.91
2022-10-05T06:53:22.534Z,93.97
2022-10-05T06:56:26.692Z,94.53
2022-10-05T06:59:18.414Z,94.14
2022-10-05T07:02:04.260Z,95.03
2022-10-05T07:05:12.582Z,95.38
2022-10-05T07:07:56.315Z,95.02
2022-10-05T07:10:36.450Z,94.56
2022-10-05T07:13:24.512Z,94.59
2022-10-05T07:15:56.930Z,95.21
2022-10-05T07:18:29.437Z,94.71
2022-10-05T07:21:04.772Z,94.67
2022-10-05T07:23:59.285Z,94.48
2022-10-05T07:26:54.540Z,93.95
2022-10-05T07:29:55.042Z,93.86
2022-10-05T07:32:51.279Z,93.77
2022-10-05T07:36:20.566Z,92.90
2022-10-05T07:39:18.482Z,91.54
2022-10-05T07:41:51.314Z,91.88
2022-10-05T07:44:43.876Z,92.10
2022-10-05T07:47:19.352Z,93.39
2022-10-05T07:49:52.069Z,92.82
2022-10-05T07:52:34.923Z,93.43
2022-10-05T07:55:21.546Z,93.24
2022-10-05T07:57:53.883Z,91.15
2022-10-05T08:00:27.924Z,92.18
2022-10-05T08:02:59.798Z,89.28
2022-10-05T08:05:30.113Z,86.79
2022-10-05T08:08:25.653Z,87.40
2022-10-05T08:11:10.618Z,88.58
2022-10-05T08:14:02.574Z,87.76
2022-10-05T08:16:36.857Z,88.61
2022-10-05T08:19:14.282Z,89.77
2022-10-05T08:21:47.844Z,88.48
2022-10-05T08:24:38.941Z,87.52
2022-10-05T08:27:14.826Z,88.25
2022-10-05T08:29:50.053Z,89.22
2022-10-05T08:32:25.193Z,86.84
2022-10-05T08:35:13.507Z,86.63
2022-10-05T08:37:42.900Z,86.65
2022-10-05T08:40:36.448Z,84.41
2022-10-05T08:43:12.901Z,83.75
2022-10-05T08:46:07.028Z,84.22
2022-10-05T08:49:01.322Z,82.69
2022-10-05T08:51:55.158Z,80.37
2022-10-05T08:54:53.603Z,78.58
2022-10-05T08:57:48.056Z,79.70
2022-10-05T09:00:19.400Z,80.26
2022-10-05T09:03:21.717Z,81.56
2022-10-05T09:05:48.033Z,82.05
2022-10-05T09:08:35.923Z,83.35
2022-10-05T09:11:12.007Z,80.58
2022-10-05T09:13:53.809Z,80.55
2022-10-05T09:16:38.247Z,81.20
2022-10-05T09:19:43.319Z,81.34
2022-10-05T09:22:31.414Z,81.33
2022-10-05T09:25:10.973Z,81.86
2022-10-05T09:27:39.257Z,81.46
2022-10-05T09:30:22.177Z,81.11
2022-10-05T09:33:25.926Z,81.47
2022-10-05T09:36:19.841Z,81.14
2022-10-05T09:39:16.783Z,82.01
2022-10-05T09:42:20.685Z,81.03
2022-10-05T09:45:25.272Z,81.45
2022-10-05T09:48:06.919Z,81.93
2022-10-05T09:50:51.536Z,81.11
2022-10-05T09:53:29.940Z,82.16
2022-10-05T09:56:22.013Z,81.22
2022-10-05T09:59:08.205Z,81.19
2022-10-05T10:02:05.664Z,80.12
2022-10-05T10:04:41.268Z,80.54
2022-10-05T10:07:27.205Z,81.25
2022-10-05T10:10:29.176Z,81.47
2022-10-05T10:13:14.196Z,80.73
2022-10-05T10:16:12.722Z,82.54
2022-10-05T10:19:00.889Z,82.37
2022-10-05T10:21:56.485Z,83.48
2022-10-05T10:24:48.601Z,83.27
2022-10-05T10:27:32.038Z,83.58
2022-10-05T10:30:51.681Z,84.46
2022-10-05T10:33:37.228Z,83.55
2022-10-05T10:36:15.486Z,84.09
2022-10-05T10:39:02.103Z,83.71
2022-10-05T10:41:40.246Z,83.57
2022-10-05T10:44:25.337Z,84.19
2022-10-05T10:47:35.257Z,83.92
2022-10-05T10:50:28.274Z,84.22
2022-10-05T10:53:29.641Z,84.48
2022-10-05T10:56:17.449Z,84.47
2022-10-05T10:59:26.556Z,84.68
2022-10-05T11:02:23.686Z,84.65
2022-10-05T11:05:08.945Z,83.72
2022-10-05T11:07:49.614Z,82.66
2022-10-05T11:10:34.570Z,83.11
2022-10-05T11:13:34.470Z,82.43
2022-10-05T11:16:20.064Z,81.70
2022-10-05T11:19:02.967Z,81.61
2022-10-05T11:21:44.394Z,82.16
2022-10-05T11:24:43.679Z,81.65
2022-10-05T11:27:28.568Z,82.08
2022-10-05T11:30:13.829Z,81.85
2022-10-05T11:32:52.733Z,82.10
2022-10-05T11:35:41.625Z,81.55
2022-10-05T11:38:10.800Z,80.61
2022-10-05T11:40:52.460Z,80.19
2022-10-05T11:44:04.480Z,80.44
2022-10-05T11:46:41.582Z,80.75
2022-10-05T11:49:32.958Z,80.40
2022-10-05T11:52:10.674Z,79.92
2022-10-05T11:55:09.957Z,78.98
2022-10-05T11:57:59.039Z,78.84
2022-10-05T12:00:32.365Z,78.26
2022-10-05T12:03:24.567Z,77.27
2022-10-05T12:06:03.167Z,79.25
2022-10-05T12:09:03.542Z,79.19
2022-10-05T12:12:14.005Z,78.98
2022-10-05T12:14:49.883Z,78.12
2022-10-05T12:18:00.996Z,76.88
2022-10-05T12:20:46.268Z,74.86
2022-10-05T12:23:25.883Z,70.86
2022-10-05T12:25:57.792Z,69.17
2022-10-05T12:28:33.091Z,70.25
2022-10-05T12:31:09.441Z,71.58
2022-10-05T12:33:44.878Z,70.91
2022-10-05T12:36:19.282Z,71.12
2022-10-05T12:39:21.148Z,70.31
2022-10-05T12:42:08.914Z,72.32
2022-10-05T12:44:54.196Z,73.41
2022-10-05T12:47:44.492Z,73.45
2022-10-05T12:50:37.245Z,73.09
2022-10-05T12:53:22.474Z,73.15
2022-10-05T12:55:53.229Z,73.85
2022-10-05T12:58:52.844Z,74.33
2022-10-05T13:01:22.056Z,74.54
2022-10-05T13:03:54.557Z,73.35
2022-10-05T13:06:43.751Z,72.77
2022-10-05T13:09:44.294Z,71.18
2022-10-05T13:12:26.557Z,67.41
2022-10-05T13:15:05.319Z,62.00
2022-10-05T13:17:42.862Z,62.49
2022-10-05T13:20:29.517Z,61.29
2022-10-05T13:23:19.783Z,66.43
2022-10-05T13:26:14.284Z,68.24
2022-10-05T13:29:29.122Z,69.75
2022-10-05T13:32:04.410Z,68.96
2022-10-05T13:34:43.260Z,70.88
2022-10-05T13:37:22.639Z,71.14
2022-10-05T13:39:58.510Z,73.25
2022-10-05T13:42:33.910Z,73.50
2022-10-05T13:45:11.778Z,74.75
2022-10-05T13:48:16.539Z,74.82
2022-10-05T13:50:50.310Z,74.14
2022-10-05T13:53:37.885Z,74.40
2022-10-05T13:56:44.937Z,72.99
2022-10-05T13:59:33.369Z,73.72
2022-10-05T14:02:09.283Z,74.43
2022-10-05T14:04:50.707Z,75.03
2022-10-05T14:07:30.714Z,74.31
2022-10-05T14:09:57.869Z,74.61
2022-10-05T14:12:27.113Z,74.14
2022-10-05T14:14:58.181Z,73.41
2022-10-05T14:17:33.570Z,73.36
2022-10-05T14:20:02.848Z,72.92
2022-10-05T14:22:29.509Z,73.06
2022-10-05T14:25:02.841Z,73.57
2022-10-05T14:27:34.647Z,73.60
2022-10-05T14:30:10.106Z,74.34
2022-10-05T14:32:50.461Z,74.18
2022-10-05T14:35:22.103Z,73.83
2022-10-05T14:37:56.040Z,72.58
2022-10-05T14:40:34.162Z,72.74
2022-10-05T14:43:16.187Z,73.54
2022-10-05T14:45:57.594Z,73.24
2022-10-05T14:48:29.046Z,74.05
2022-10-05T14:50:59.335Z,75.17
2022-10-05T14:53:37.977Z,75.39
2022-10-05T14:56:39.190Z,76.95
2022-10-05T14:59:23.188Z,77.46
2022-10-05T15:02:28.527Z,77.21
2022-10-05T15:05:01.914Z,77.48
2022-10-05T15:07:36.116Z,77.60
2022-10-05T15:10:44.502Z,78.22
2022-10-05T15:13:20.422Z,79.47
2022-10-05T15:16:05.843Z,79.62
2022-10-05T15:18:51.249Z,80.23
2022-10-05T15:21:23.873Z,79.55
2022-10-05T15:23:57.343Z,79.74
2022-10-05T15:26:50.459Z,79.29
2022-10-05T15:29:49.816Z,80.19
2022-10-05T15:32:34.379Z,79.62
2022-10-05T15:35:21.446Z,80.32
2022-10-05T15:37:56.429Z,79.47
2022-10-05T15:40:34.600Z,79.62
2022-10-05T15:43:10.164Z,80.87
2022-10-05T15:45:42.721Z,80.48
2022-10-05T15:48:22.350Z,80.78
2022-10-05T15:51:07.069Z,82.10
2022-10-05T15:54:15.577Z,81.57
2022-10-05T15:56:49.981Z,80.98
2022-10-05T15:59:34.058Z,80.68
2022-10-05T16:02:07.207Z,81.31
2022-10-05T16:04:47.774Z,81.41
2022-10-05T16:07:46.640Z,81.57
2022-10-05T16:10:17.350Z,81.08
2022-10-05T16:12:55.691Z,81.46
2022-10-05T16:15:48.520Z,81.53
2022-10-05T16:19:01.045Z,82.16
2022-10-05T16:21:44.077Z,82.35
2022-10-05T16:24:16.559Z,82.72
2022-10-05T16:26:59.973Z,83.20
2022-10-05T16:29:46.744Z,83.63
2022-10-05T16:32:21.234Z,83.82
2022-10-05T16:35:16.991Z,83.67
2022-10-05T16:37:58.874Z,83.93
2022-10-05T16:40:37.666Z,83.95
2022-10-05T16:43:25.674Z,84.84
2022-10-05T16:46:13.796Z,85.03
2022-10-05T16:48:54.350Z,85.90
2022-10-05T16:51:52.443Z,86.41
2022-10-05T16:54:24.142Z,86.63
2022-10-05T16:57:18.481Z,87.23
2022-10-05T17:00:14.905Z,87.34
2022-10-05T17:03:11.159Z,88.20
2022-10-05T17:06:06.989Z,87.60
2022-10-05T17:08:47.246Z,88.16
2022-10-05T17:11:26.648Z,87.85
2022-10-05T17:14:16.019Z,88.14
2022-10-05T17:17:01.102Z,87.73
2022-10-05T17:19:38.618Z,87.90
2022-10-05T17:22:12.241Z,88.86
2022-10-05T17:24:57.350Z,88.36
2022-10-05T17:27:51.048Z,88.85
2022-10-05T17:30:39.063Z,89.23
2022-10-05T17:33:21.126Z,89.43
2022-10-05T17:35:58.169Z,89.43
2022-10-05T17:38:30.760Z,89.12
2022-10-05T17:41:00.149Z,88.96
2022-10-05T17:43:28.515Z,89.88
2022-10-05T17:46:03.867Z,94.30
2022-10-05T17:48:48.382Z,98.58
2022-10-05T17:51:53.545Z,100.00
2022-10-05T17:54:49.328Z,100.00
2022-10-05T17:57:25.430Z,100.00
2022-10-05T17:59:57.717Z,100.00
2022-10-05T18:02:36.813Z,100.00
2022-10-05T18:05:04.438Z,100.00
2022-10-05T18:07:32.164Z,100.00
2022-10-05T18:10:24.454Z,100.00
2022-10-05T18:13:33.507Z,100.00
2022-10-05T18:16:00.157Z,100.00
2022-10-05T18:18:57.266Z,100.00
2022-10-05T18:21:32.644Z,100.00
2022-10-05T18:23:58.993Z,100.00
2022-10-05T18:26:41.591Z,100.00
2022-10-05T18:29:49.555Z,100.00
2022-10-05T18:32:46.821Z,100.00
2022-10-05T18:35:19.962Z,100.00
2022-10-05T18:38:09.451Z,100.00
2022-10-05T18:40:54.789Z,100.00
2022-10-05T18:43:42.503Z,100.00
2022-10-05T18:46:27.331Z,100.00
2022-10-05T18:49:12.492Z,100.00
2022-10-05T18:52:03.772Z,100.00
2022-10-05T18:54:54.092Z,100.00
2022-10-05T18:57:37.252Z,100.00
2022-10-05T19:00:18.655Z,100.00
2022-10-05T19:03:05.933Z,100.00
2022-10-05T19:05:48.351Z,100.00
2022-10-05T19:08:32.832Z,100.00
2022-10-05T19:11:11.803Z,100.00
2022-10-05T19:14:07.263Z,100.00
2022-10-05T19:16:52.715Z,100.00
2022-10-05T19:19:30.908Z,100.00
2022-10-05T19:22:25.082Z,100.00
2022-10-05T19:25:17.352Z,100.00
2022-10-05T19:28:23.494Z,100.00
2022-10-05T19:31:11.308Z,100.00
2022-10-05T19:33:46.149Z,100.00
2022-10-05T19:36:36.989Z,100.00
2022-10-05T19:39:12.277Z,100.00
2022-10-05T19:42:04.252Z,100.00
2022-10-05T19:44:50.324Z,100.00
2022-10-05T19:47:28.992Z,100.00
2022-10-05T19:49:55.295Z,100.00
2022-10-05T19:52:36.548Z,100.00
2022-10-05T19:55:12.794Z,100.00
2022-10-05T19:57:51.557Z,100.00
2022-10-05T20:00:35.489Z,100.00
2022-10-05T20:03:26.451Z,100.00
2022-10-05T20:05:54.836Z,100.00
2022-10-05T20:08:26.709Z,100.00
2022-10-05T20:11:06.229Z,100.00
2022-10-05T20:13:35.445Z,100.00
2022-10-05T20:16:36.320Z,100.00
2022-10-05T20:19:43.268Z,100.00
2022-10-05T20:22:33.766Z,100.00
2022-10-05T20:25:25.367Z,100.00
2022-10-05T20:27:55.524Z,100.00
2022-10-05T20:30:31.377Z,100.00
2022-10-05T20:33:06.798Z,100.00
2022-10-05T20:35:33.153Z,100.00
2022-10-05T20:37:59.925Z,100.00
2022-10-05T20:40:28.898Z,100.00
2022-10-05T20:42:56.565Z,100.00
2022-10-05T20:45:23.087Z,100.00
2022-10-05T20:47:50.631Z,100.00
2022-10-05T20:50:17.344Z,100.00
2022-10-05T20:52:43.701Z,100.00
2022-10-05T20:55:11.839Z,100.00
2022-10-05T20:57:41.791Z,100.00
2022-10-05T21:00:11.036Z,100.00
2022-10-05T21:02:38.522Z,100.00
2022-10-05T21:05:05.888Z,100.00
2022-10-05T21:07:34.156Z,100.00
2022-10-05T21:10:01.199Z,100.00
2022-10-05T21:12:27.588Z,100.00
2022-10-05T21:14:54.037Z,100.00
2022-10-05T21:17:20.387Z,100.00
2022-10-05T21:19:47.395Z,100.00
2022-10-05T21:22:13.862Z,100.00
2022-10-05T21:24:40.993Z,100.00
2022-10-05T21:27:08.025Z,100.00
2022-10-05T21:29:35.690Z,100.00
2022-10-05T21:32:02.580Z,100.00
2022-10-05T21:34:30.227Z,100.00
2022-10-05T21:36:56.627Z,100.00
2022-10-05T21:39:23.577Z,100.00
2022-10-05T21:41:50.013Z,100.00
2022-10-05T21:44:16.591Z,100.00
2022-10-05T21:46:43.077Z,100.00
2022-10-05T21:49:09.801Z,100.00
2022-10-05T21:51:37.087Z,100.00
2022-10-05T21:54:11.650Z,100.00
2022-10-05T21:56:44.038Z,100.00
2022-10-05T21:59:14.202Z,100.00
2022-10-05T22:01:40.756Z,100.00
2022-10-05T22:04:07.432Z,100.00
2022-10-05T22:06:35.154Z,100.00
2022-10-05T22:09:02.372Z,96.47
2022-10-05T22:11:29.058Z,96.60
2022-10-05T22:14:02.041Z,99.08
2022-10-05T22:16:31.703Z,99.16
2022-10-05T22:18:58.726Z,98.40
2022-10-05T22:21:25.188Z,95.23
2022-10-05T22:23:51.608Z,90.80
2022-10-05T22:26:21.187Z,80.33
2022-10-05T22:28:48.467Z,80.77
2022-10-05T22:31:15.765Z,79.52
2022-10-05T22:33:42.602Z,80.05
2022-10-05T22:36:09.673Z,78.90
2022-10-05T22:38:36.329Z,80.23
2022-10-05T22:41:02.802Z,81.62
2022-10-05T22:43:29.233Z,83.16
2022-10-05T22:45:56.234Z,84.41
2022-10-05T22:48:23.109Z,82.95
2022-10-05T22:50:49.600Z,83.49
2022-10-05T22:53:16.094Z,84.26
2022-10-05T22:55:42.514Z,82.69
2022-10-05T22:58:08.906Z,80.82
2022-10-05T23:00:57.135Z,81.50
2022-10-05T23:03:21.702Z,82.56
2022-10-05T23:05:48.210Z,82.13
2022-10-05T23:08:15.992Z,81.10
2022-10-05T23:10:42.508Z,80.91
2022-10-05T23:13:08.873Z,83.65
2022-10-05T23:15:35.780Z,83.90
2022-10-05T23:18:02.162Z,84.21
2022-10-05T23:20:28.606Z,80.98
2022-10-05T23:22:54.954Z,80.64
2022-10-05T23:25:22.199Z,80.29
2022-10-05T23:27:48.683Z,80.87
2022-10-05T23:30:15.196Z,79.78
2022-10-05T23:32:44.090Z,79.36
2022-10-05T23:35:12.622Z,79.75
2022-10-05T23:37:43.455Z,80.05
2022-10-05T23:40:12.711Z,79.48
2022-10-05T23:42:40.596Z,77.43
2022-10-05T23:45:11.556Z,76.38
2022-10-05T23:47:39.673Z,75.91
2022-10-05T23:50:07.780Z,77.12
2022-10-05T23:52:35.079Z,78.41
2022-10-05T23:55:03.049Z,77.87
2022-10-05T23:57:29.423Z,78.07
2022-10-05T23:59:56.327Z,78.34
